createdAt,value
2023-04-15T00:00:58.585Z,9.50
2023-04-15T00:03:25.636Z,9.50
2023-04-15T00:05:52.753Z,9.40
2023-04-15T00:08:20.517Z,9.40
2023-04-15T00:10:47.912Z,9.40
2023-04-15T00:13:15.498Z,9.30
2023-04-15T00:15:43.318Z,9.30
2023-04-15T00:18:10.246Z,9.30
2023-04-15T00:20:37.290Z,9.30
2023-04-15T00:23:04.416Z,9.30
2023-04-15T00:25:31.297Z,9.30
2023-04-15T00:27:58.277Z,9.30
2023-04-15T00:30:25.780Z,9.20
2023-04-15T00:32:52.788Z,9.30
2023-04-15T00:35:19.519Z,9.20
2023-04-15T00:37:46.489Z,9.10
2023-04-15T00:40:13.948Z,9.00
2023-04-15T00:42:41.093Z,9.00
2023-04-15T00:45:08.830Z,9.10
2023-04-15T00:47:37.291Z,9.10
2023-04-15T00:50:05.113Z,9.00
2023-04-15T00:52:32.124Z,9.10
2023-04-15T00:54:59.530Z,9.00
2023-04-15T00:57:27.118Z,9.00
2023-04-15T00:59:54.441Z,9.10
2023-04-15T01:02:21.800Z,9.00
2023-04-15T01:04:48.756Z,9.00
2023-04-15T01:07:15.519Z,9.00
2023-04-15T01:09:42.283Z,8.90
2023-04-15T01:12:12.027Z,9.00
2023-04-15T01:14:38.780Z,9.00
2023-04-15T01:17:05.534Z,8.90
2023-04-15T01:19:32.311Z,9.00
2023-04-15T01:21:59.082Z,8.90
2023-04-15T01:24:28.044Z,8.90
2023-04-15T01:26:54.913Z,8.90
2023-04-15T01:29:22.431Z,8.70
2023-04-15T01:31:50.934Z,8.90
2023-04-15T01:34:17.794Z,8.80
2023-04-15T01:36:44.611Z,8.80
2023-04-15T01:39:11.329Z,8.80
2023-04-15T01:41:38.030Z,8.90
2023-04-15T01:44:04.921Z,8.90
2023-04-15T01:46:31.633Z,8.80
2023-04-15T01:48:58.673Z,8.90
2023-04-15T01:51:25.661Z,8.70
2023-04-15T01:53:52.487Z,8.90
2023-04-15T01:56:19.247Z,8.80
2023-04-15T01:58:46.471Z,8.80
2023-04-15T02:01:13.171Z,8.90
2023-04-15T02:03:40.005Z,8.90
2023-04-15T02:06:06.755Z,8.80
2023-04-15T02:08:33.588Z,8.80
2023-04-15T02:11:01.246Z,8.80
2023-04-15T02:13:27.975Z,8.80
2023-04-15T02:15:55.653Z,8.80
2023-04-15T02:18:22.379Z,8.80
2023-04-15T02:20:49.467Z,8.70
2023-04-15T02:23:16.839Z,8.60
2023-04-15T02:25:43.594Z,8.80
2023-04-15T02:28:20.846Z,8.80
2023-04-15T02:30:48.508Z,8.70
2023-04-15T03:39:56.137Z,8.30
2023-04-15T03:42:22.981Z,8.30
2023-04-15T03:44:49.747Z,8.40
2023-04-15T03:47:16.477Z,8.30
2023-04-15T03:49:43.227Z,8.50
2023-04-15T03:52:10.006Z,8.40
2023-04-15T03:54:36.791Z,8.50
2023-04-15T03:57:03.483Z,8.40
2023-04-15T03:59:30.173Z,8.40
2023-04-15T04:01:57.103Z,8.40
2023-04-15T04:04:24.181Z,8.40
2023-04-15T04:06:51.090Z,8.40
2023-04-15T04:09:17.833Z,8.30
2023-04-15T04:11:45.641Z,8.30
2023-04-15T04:14:12.348Z,8.30
2023-04-15T04:16:39.182Z,8.30
2023-04-15T04:19:06.437Z,8.30
2023-04-15T04:21:34.224Z,8.20
2023-04-15T04:24:01.097Z,8.30
2023-04-15T04:26:27.860Z,8.20
2023-04-15T04:28:54.554Z,8.40
2023-04-15T04:31:21.276Z,8.30
2023-04-15T04:33:47.954Z,8.10
2023-04-15T04:36:14.678Z,8.20
2023-04-15T04:38:41.424Z,8.20
2023-04-15T04:41:08.125Z,8.20
2023-04-15T04:43:34.892Z,8.30
2023-04-15T04:46:01.854Z,8.30
2023-04-15T04:48:28.626Z,8.30
2023-04-15T04:50:55.731Z,8.30
2023-04-15T04:53:22.477Z,8.30
2023-04-15T04:55:49.177Z,8.40
2023-04-15T04:58:15.896Z,8.50
2023-04-15T05:00:42.871Z,8.40
2023-04-15T05:03:09.836Z,8.60
2023-04-15T05:05:39.467Z,8.70
2023-04-15T05:08:06.193Z,8.70
2023-04-15T05:10:33.062Z,8.80
2023-04-15T05:12:59.783Z,8.90
2023-04-15T05:15:26.529Z,9.20
2023-04-15T05:17:53.301Z,9.40
2023-04-15T05:20:20.118Z,9.30
2023-04-15T05:22:46.831Z,9.50
2023-04-15T05:25:13.751Z,9.60
2023-04-15T05:27:40.561Z,9.90
2023-04-15T05:30:07.587Z,10.00
2023-04-15T05:32:34.488Z,10.70
2023-04-15T05:35:01.649Z,12.00
2023-04-15T05:37:28.466Z,12.40
2023-04-15T05:39:55.152Z,12.40
2023-04-15T05:42:22.023Z,12.40
2023-04-15T05:44:48.791Z,11.80
2023-04-15T05:47:15.887Z,12.40
2023-04-15T05:49:42.588Z,12.50
2023-04-15T05:52:09.316Z,12.80
2023-04-15T05:54:36.608Z,12.90
2023-04-15T05:57:04.046Z,12.80
2023-04-15T05:59:31.017Z,12.90
2023-04-15T06:01:58.044Z,13.00
2023-04-15T06:04:24.912Z,12.40
2023-04-15T06:06:52.199Z,11.70
2023-04-15T06:09:19.018Z,11.10
2023-04-15T06:11:45.815Z,10.90
2023-04-15T06:14:12.630Z,10.60
2023-04-15T06:16:39.528Z,10.90
2023-04-15T06:19:06.336Z,12.30
2023-04-15T06:21:33.168Z,13.40
2023-04-15T06:24:02.792Z,14.30
2023-04-15T06:26:29.605Z,15.00
2023-04-15T06:28:56.424Z,15.20
2023-04-15T06:31:23.172Z,15.00
2023-04-15T06:33:50.055Z,15.40
2023-04-15T06:36:16.782Z,15.40
2023-04-15T06:38:43.471Z,15.80
2023-04-15T06:41:10.341Z,16.40
2023-04-15T06:43:37.024Z,15.40
2023-04-15T06:46:03.811Z,15.40
2023-04-15T06:48:30.624Z,15.70
2023-04-15T06:50:58.364Z,16.10
2023-04-15T06:53:27.131Z,16.20
2023-04-15T06:55:53.867Z,15.70
2023-04-15T06:58:20.620Z,14.90
2023-04-15T07:00:47.938Z,14.70
2023-04-15T07:03:15.244Z,14.70
2023-04-15T07:05:42.063Z,14.20
2023-04-15T07:08:08.993Z,13.70
2023-04-15T07:10:35.695Z,14.00
2023-04-15T07:13:02.752Z,14.00
2023-04-15T07:15:29.408Z,13.90
2023-04-15T07:17:56.409Z,13.80
2023-04-15T07:20:23.351Z,14.00
2023-04-15T07:22:50.114Z,13.90
2023-04-15T07:25:17.778Z,13.70
2023-04-15T07:27:44.655Z,13.40
2023-04-15T07:30:12.527Z,13.70
2023-04-15T07:32:39.263Z,13.70
2023-04-15T07:35:06.157Z,13.70
2023-04-15T07:37:33.720Z,13.30
2023-04-15T07:40:00.596Z,12.80
2023-04-15T07:42:27.662Z,12.50
2023-04-15T07:44:54.394Z,12.20
2023-04-15T07:47:21.456Z,11.50
2023-04-15T07:49:48.226Z,11.50
2023-04-15T07:52:14.930Z,11.60
2023-04-15T07:54:41.802Z,11.60
2023-04-15T07:57:08.760Z,11.50
2023-04-15T09:31:48.680Z,14.00
2023-04-15T09:34:15.601Z,14.00
2023-04-15T09:36:50.507Z,14.10
2023-04-15T09:39:17.932Z,14.30
2023-04-15T09:41:45.223Z,14.30
2023-04-15T09:44:25.015Z,14.30
2023-04-15T09:46:51.901Z,14.50
2023-04-15T09:49:18.660Z,15.10
2023-04-15T09:51:57.612Z,16.10
2023-04-15T09:54:35.094Z,16.70
2023-04-15T09:57:06.021Z,17.30
2023-04-15T09:59:32.767Z,17.60
2023-04-15T10:01:59.762Z,18.30
2023-04-15T10:04:28.329Z,18.20
2023-04-15T10:06:55.606Z,18.20
2023-04-15T10:09:22.367Z,18.70
2023-04-15T10:11:49.901Z,19.10
2023-04-15T10:14:17.577Z,19.10
2023-04-15T10:16:46.024Z,18.80
2023-04-15T10:19:12.845Z,18.90
2023-04-15T10:21:40.039Z,19.30
2023-04-15T10:24:07.129Z,19.80
2023-04-15T10:26:34.436Z,21.20
2023-04-15T10:29:01.371Z,21.70
2023-04-15T10:31:28.739Z,20.80
2023-04-15T10:33:55.625Z,20.10
2023-04-15T10:36:22.474Z,19.80
2023-04-15T10:38:49.239Z,19.20
2023-04-15T10:41:17.826Z,18.30
2023-04-15T10:43:47.878Z,18.40
2023-04-15T10:46:17.207Z,18.10
2023-04-15T10:48:51.339Z,18.50
2023-04-15T10:51:26.741Z,18.90
2023-04-15T10:53:56.455Z,18.80
2023-04-15T10:56:23.296Z,19.50
2023-04-15T10:58:50.053Z,20.10
2023-04-15T11:01:16.812Z,21.90
2023-04-15T11:03:43.743Z,22.30
2023-04-15T11:06:11.267Z,23.30
2023-04-15T11:09:02.653Z,23.00
2023-04-15T11:11:48.574Z,22.40
2023-04-15T11:14:16.230Z,22.30
2023-04-15T11:16:44.988Z,22.10
2023-04-15T11:19:11.925Z,22.90
2023-04-15T11:21:38.651Z,23.80
2023-04-15T11:24:05.687Z,23.60
2023-04-15T11:26:32.818Z,22.70
2023-04-15T11:29:01.543Z,22.70
2023-04-15T11:31:28.707Z,21.50
2023-04-15T11:33:56.968Z,21.70
2023-04-15T11:36:28.040Z,21.10
2023-04-15T11:38:55.242Z,20.00
2023-04-15T11:41:22.885Z,19.90
2023-04-15T11:43:50.454Z,20.40
2023-04-15T11:46:17.887Z,20.70
2023-04-15T11:48:45.769Z,20.60
2023-04-15T11:51:13.211Z,20.80
2023-04-15T11:53:41.552Z,21.00
2023-04-15T11:56:09.421Z,21.70
2023-04-15T11:58:39.971Z,21.90
2023-04-15T12:01:07.406Z,22.40
2023-04-15T12:03:42.584Z,24.10
2023-04-15T12:06:21.795Z,23.70
2023-04-15T12:08:58.478Z,22.30
2023-04-15T12:11:31.451Z,23.60
2023-04-15T12:13:59.356Z,23.90
2023-04-15T12:16:28.021Z,24.80
2023-04-15T12:18:56.380Z,24.20
2023-04-15T12:21:24.715Z,25.00
2023-04-15T12:23:52.480Z,24.40
2023-04-15T12:26:25.686Z,23.50
2023-04-15T12:28:56.598Z,22.90
2023-04-15T12:31:23.828Z,23.60
2023-04-15T12:33:51.062Z,24.10
2023-04-15T12:36:17.794Z,24.90
2023-04-15T12:38:44.486Z,25.40
2023-04-15T12:41:11.467Z,23.70
2023-04-15T12:43:38.138Z,23.20
2023-04-15T12:46:05.090Z,23.10
2023-04-15T12:48:31.886Z,23.60
2023-04-15T12:50:58.608Z,22.20
2023-04-15T12:53:26.398Z,21.60
2023-04-15T12:55:53.145Z,21.80
2023-04-15T12:58:19.926Z,21.60
2023-04-15T13:00:47.015Z,21.80
2023-04-15T13:03:14.211Z,22.90
2023-04-15T13:05:41.204Z,22.90
2023-04-15T13:08:08.007Z,22.70
2023-04-15T13:10:36.635Z,23.50
2023-04-15T13:13:03.516Z,22.20
2023-04-15T13:15:30.217Z,21.60
2023-04-15T13:17:57.103Z,21.50
2023-04-15T13:20:23.908Z,22.10
2023-04-15T13:22:52.151Z,22.40
2023-04-15T13:25:18.860Z,22.20
2023-04-15T13:27:48.180Z,18.40
2023-04-15T13:30:14.948Z,18.30
2023-04-15T13:32:41.702Z,17.30
2023-04-15T13:35:08.665Z,16.80
2023-04-15T13:37:35.425Z,16.60
2023-04-15T13:40:02.250Z,16.50
2023-04-15T13:42:29.011Z,16.40
2023-04-15T13:44:55.803Z,16.30
2023-04-15T13:47:22.596Z,16.40
2023-04-15T13:49:49.325Z,16.50
2023-04-15T13:52:16.111Z,16.40
2023-04-15T13:54:42.867Z,16.50
2023-04-15T13:57:09.857Z,16.60
2023-04-15T13:59:36.601Z,16.20
2023-04-15T14:02:03.525Z,16.20
2023-04-15T14:04:31.434Z,16.30
2023-04-15T14:06:58.565Z,16.30
2023-04-15T14:09:26.534Z,16.00
2023-04-15T14:11:54.934Z,15.90
2023-04-15T14:14:21.738Z,15.90
2023-04-15T14:16:48.602Z,15.70
2023-04-15T14:19:15.332Z,15.60
2023-04-15T14:21:42.020Z,15.70
2023-04-15T14:24:08.915Z,15.80
2023-04-15T14:26:35.779Z,15.60
2023-04-15T14:29:02.682Z,15.70
2023-04-15T14:31:29.721Z,15.60
2023-04-15T14:33:56.555Z,15.70
2023-04-15T14:36:23.221Z,15.70
2023-04-15T14:38:50.078Z,15.70
2023-04-15T14:41:17.245Z,15.70
2023-04-15T14:43:43.980Z,15.40
2023-04-15T14:46:11.035Z,15.50
2023-04-15T14:48:37.856Z,15.50
2023-04-15T14:51:04.789Z,15.60
2023-04-15T14:53:31.554Z,15.70
2023-04-15T14:55:58.450Z,15.60
2023-04-15T14:58:25.453Z,15.60
2023-04-15T15:00:52.305Z,15.70
2023-04-15T15:03:19.122Z,15.80
2023-04-15T15:05:46.892Z,15.90
2023-04-15T15:08:13.801Z,15.60
2023-04-15T15:10:48.641Z,15.50
2023-04-15T15:13:17.287Z,15.30
2023-04-15T15:15:44.144Z,15.30
2023-04-15T15:18:13.122Z,15.30
2023-04-15T15:20:39.938Z,15.10
2023-04-15T15:23:06.843Z,15.00
2023-04-15T15:25:33.586Z,15.00
2023-04-15T15:28:00.359Z,15.00
2023-04-15T15:30:27.264Z,14.90
2023-04-15T15:32:54.051Z,14.90
2023-04-15T15:35:23.005Z,14.90
2023-04-15T15:37:49.969Z,14.80
2023-04-15T15:40:16.734Z,14.70
2023-04-15T15:42:43.478Z,14.70
2023-04-15T15:45:10.580Z,14.60
2023-04-15T15:47:37.427Z,14.60
2023-04-15T15:50:06.059Z,14.60
2023-04-15T15:52:33.028Z,14.60
2023-04-15T15:54:59.911Z,14.60
2023-04-15T15:57:26.671Z,14.60
2023-04-15T16:00:04.927Z,14.50
2023-04-15T16:03:04.502Z,14.50
2023-04-15T16:05:24.021Z,14.40
2023-04-15T16:07:50.916Z,14.40
2023-04-15T16:10:17.706Z,14.40
2023-04-15T16:12:44.850Z,14.40
2023-04-15T16:15:12.300Z,14.30
2023-04-15T16:17:39.411Z,14.30
2023-04-15T16:20:07.038Z,14.20
2023-04-15T16:22:34.873Z,14.20
2023-04-15T16:25:01.958Z,14.10
2023-04-15T16:27:28.724Z,14.00
2023-04-15T16:29:55.721Z,14.00
2023-04-15T16:32:22.625Z,14.00
2023-04-15T16:34:49.505Z,14.00
2023-04-15T16:37:16.365Z,14.00
2023-04-15T16:39:43.128Z,13.90
2023-04-15T16:42:10.201Z,14.00
2023-04-15T16:44:36.925Z,13.90
2023-04-15T16:47:03.651Z,13.90
2023-04-15T16:49:30.473Z,14.00
2023-04-15T16:51:57.353Z,13.90
2023-04-15T16:54:24.192Z,13.90
2023-04-15T16:56:51.129Z,13.70
2023-04-15T16:59:17.821Z,13.80
2023-04-15T17:01:45.490Z,13.60
2023-04-15T17:04:12.281Z,13.50
2023-04-15T17:06:39.034Z,13.40
2023-04-15T17:09:05.999Z,13.30
2023-04-15T17:11:33.000Z,13.40
2023-04-15T17:13:59.843Z,13.20
2023-04-15T17:16:26.812Z,13.20
2023-04-15T17:18:53.667Z,13.10
2023-04-15T17:21:21.513Z,13.10
2023-04-15T17:23:48.259Z,13.00
2023-04-15T17:26:14.989Z,13.00
2023-04-15T17:28:41.871Z,13.00
2023-04-15T17:31:08.919Z,12.90
2023-04-15T17:34:01.812Z,12.90
2023-04-15T17:36:22.706Z,12.80
2023-04-15T17:38:49.609Z,12.80
2023-04-15T17:41:16.403Z,12.60
2023-04-15T17:43:43.157Z,12.70
2023-04-15T17:46:12.080Z,12.70
2023-04-15T17:48:38.904Z,12.60
2023-04-15T17:51:05.884Z,12.60
2023-04-15T17:53:32.785Z,12.60
2023-04-15T17:55:59.528Z,12.60
2023-04-15T17:58:27.400Z,12.60
2023-04-15T18:00:54.117Z,12.50
2023-04-15T18:03:22.094Z,12.50
2023-04-15T18:05:48.996Z,12.40
2023-04-15T18:08:15.742Z,12.30
2023-04-15T18:10:42.507Z,12.40
2023-04-15T18:13:09.392Z,12.30
2023-04-15T18:15:36.299Z,12.20
2023-04-15T18:18:03.141Z,12.20
2023-04-15T18:20:29.891Z,12.10
2023-04-15T18:22:57.095Z,12.10
2023-04-15T18:25:23.838Z,12.10
2023-04-15T18:27:50.851Z,12.00
2023-04-15T18:30:17.596Z,11.90
2023-04-15T18:32:44.312Z,11.70
2023-04-15T18:35:11.213Z,11.70
2023-04-15T18:37:37.969Z,11.70
2023-04-15T18:40:04.879Z,11.70
2023-04-15T18:42:31.611Z,11.70
2023-04-15T18:44:58.660Z,11.50
2023-04-15T18:47:27.161Z,11.40
2023-04-15T18:49:54.062Z,11.40
2023-04-15T18:52:21.095Z,11.40
2023-04-15T18:54:47.984Z,11.20
2023-04-15T18:57:14.777Z,11.20
2023-04-15T18:59:49.445Z,11.30
2023-04-15T19:02:16.344Z,11.20
2023-04-15T19:04:43.202Z,11.10
2023-04-15T19:07:10.072Z,11.00
2023-04-15T19:09:36.949Z,10.90
2023-04-15T19:12:04.032Z,10.90
2023-04-15T19:14:30.982Z,10.90
2023-04-15T19:16:57.878Z,10.90
2023-04-15T19:19:24.764Z,10.90
2023-04-15T19:21:52.686Z,10.90
2023-04-15T19:24:19.821Z,10.90
2023-04-15T19:26:52.813Z,10.70
2023-04-15T19:29:19.640Z,10.70
2023-04-15T19:31:46.423Z,10.60
2023-04-15T19:34:13.165Z,10.70
2023-04-15T19:36:39.924Z,10.50
2023-04-15T19:39:06.926Z,10.50
2023-04-15T19:41:33.823Z,10.50
2023-04-15T19:44:00.542Z,10.50
2023-04-15T19:46:27.913Z,10.40
2023-04-15T19:48:55.298Z,10.40
2023-04-15T19:51:21.991Z,10.30
2023-04-15T19:53:49.672Z,10.20
2023-04-15T19:56:16.545Z,10.20
2023-04-15T19:58:46.518Z,10.10
2023-04-15T20:01:13.294Z,10.10
2023-04-15T20:03:40.955Z,10.00
2023-04-15T20:06:07.755Z,9.90
2023-04-15T20:08:34.485Z,9.90
2023-04-15T20:11:01.661Z,9.90
2023-04-15T20:13:28.484Z,9.80
2023-04-15T20:15:55.311Z,9.70
2023-04-15T20:18:22.027Z,9.70
2023-04-15T20:20:48.727Z,9.70
2023-04-15T20:23:15.635Z,9.70
2023-04-15T20:25:42.467Z,9.50
2023-04-15T20:28:09.188Z,9.50
2023-04-15T20:30:36.222Z,9.50
2023-04-15T20:33:03.161Z,9.50
2023-04-15T20:35:31.041Z,9.50
2023-04-15T20:37:57.903Z,9.40
2023-04-15T20:40:24.694Z,9.40
2023-04-15T20:42:51.598Z,9.30
2023-04-15T20:45:18.385Z,9.30
2023-04-15T20:47:45.216Z,9.20
2023-04-15T20:50:12.268Z,9.30
2023-04-15T20:52:39.725Z,9.20
2023-04-15T20:55:07.123Z,9.20
2023-04-15T20:57:33.916Z,9.10
2023-04-15T21:00:00.660Z,9.00
2023-04-15T21:02:27.645Z,8.90
2023-04-15T21:04:54.543Z,9.00
2023-04-15T21:07:21.397Z,8.90
2023-04-15T21:09:49.306Z,8.90
2023-04-15T21:12:16.229Z,8.80
2023-04-15T21:14:42.997Z,8.90
2023-04-15T21:17:11.126Z,8.80
2023-04-15T21:19:38.594Z,8.80
2023-04-15T21:22:05.403Z,8.70
2023-04-15T21:24:32.170Z,8.70
2023-04-15T21:26:58.945Z,8.60
2023-04-15T21:29:25.965Z,8.50
2023-04-15T21:31:52.774Z,8.60
2023-04-15T21:34:19.503Z,8.40
2023-04-15T21:36:46.329Z,8.40
2023-04-15T21:39:13.088Z,8.30
2023-04-15T21:41:39.864Z,8.40
2023-04-15T21:44:06.629Z,8.40
2023-04-15T21:46:35.666Z,8.30
2023-04-15T21:49:03.064Z,8.40
2023-04-15T21:51:29.954Z,8.40
2023-04-15T21:53:56.718Z,8.30
2023-04-15T21:56:24.674Z,8.40
2023-04-15T21:58:54.262Z,8.40
2023-04-15T22:01:21.186Z,8.30
2023-04-15T22:03:48.068Z,8.30
2023-04-15T22:06:14.901Z,8.20
2023-04-15T22:08:52.518Z,8.40
2023-04-15T22:11:27.127Z,8.40
2023-04-15T22:13:54.628Z,8.30
2023-04-15T22:16:21.481Z,8.30
2023-04-15T22:18:48.395Z,8.30
2023-04-15T22:21:15.180Z,8.30
2023-04-15T22:23:41.974Z,8.30
2023-04-15T22:26:08.726Z,8.30
2023-04-15T22:28:35.614Z,8.30
2023-04-15T22:31:02.610Z,8.30
2023-04-15T22:33:29.510Z,8.30
2023-04-15T22:35:56.673Z,8.30
2023-04-15T22:38:24.247Z,8.30
2023-04-15T22:40:53.857Z,8.20
2023-04-15T22:43:20.701Z,8.30
2023-04-15T22:45:50.756Z,8.10
2023-04-15T22:48:18.046Z,8.00
2023-04-15T22:50:44.822Z,8.10
2023-04-15T22:53:11.631Z,8.10
2023-04-15T22:55:38.369Z,8.00
2023-04-15T22:58:05.117Z,8.10
2023-04-15T23:00:31.840Z,8.00
2023-04-15T23:02:58.725Z,8.00
2023-04-15T23:05:25.607Z,8.10
2023-04-15T23:07:52.362Z,8.00
2023-04-15T23:10:19.107Z,8.00
2023-04-15T23:12:46.701Z,7.90
2023-04-15T23:15:13.392Z,7.90
2023-04-15T23:17:40.229Z,7.80
2023-04-15T23:20:07.099Z,8.00
2023-04-15T23:22:37.530Z,8.00
2023-04-15T23:25:07.638Z,8.00
2023-04-15T23:27:34.634Z,7.90
2023-04-15T23:30:01.369Z,8.00
2023-04-15T23:32:28.123Z,7.80
2023-04-15T23:34:54.813Z,7.90
2023-04-15T23:37:21.582Z,7.90
2023-04-15T23:39:48.318Z,7.90
2023-04-15T23:42:15.074Z,7.90
2023-04-15T23:44:41.772Z,7.90
2023-04-15T23:47:08.536Z,7.90
2023-04-15T23:49:37.667Z,7.60
2023-04-15T23:52:04.577Z,7.70
2023-04-15T23:54:31.270Z,7.80
2023-04-15T23:56:58.035Z,7.80
2023-04-15T23:59:24.746Z,7.90
